Shahid Moarebi Zadeh Hospital Heliport

IR-0065 · Khuzestan, 伊朗

使用的METAR站距离机场49 km。
罗盘
风向 的 风向 300° 直升机
风: 4 kt, 2 beaufort
0 ft 1.000 2.000 3.000 4.000 5.000
CAVOK
METAR OIAM 220400Z 30004KT CAVOK 35/18 Q0995

METAR Shahid Moarebi Zadeh Hospital Heliport - IR-0065

Shahid Moarebi Zadeh Hospital Heliport是,伊朗中的直升机场。 该机场位于纬度30,66143和经度48,65149。 这个机场没有ICAO代码,我们使用IR-0065作为参考。 机场在Tehran FIR中。

该航空气象观测是针对Mahshahr Airport在2024年7月22日 07:30, 当地时间进行的。

机场观察

风向为300°,速度为4 kt。

天气为CAVOK。这意味着在5.000 ft或MSA(最低安全高度)以下(以较高者为准)以下没有云。这也意味着没有观测到积雨云或高耸的积云,可见度为10 km 或者更多或更高。此外,不会有雾,降雨或其他重要天气。

温度和风寒是35 °C。 露点为18 °C,相对湿度为36%。 海平面上的气压为995 hPa (QNH)。

白天

今天,太阳从05:27升起,在19:16降落。 这适用于Shahid Moarebi Zadeh Hospital Heliport,世界夏令时可能有所不同。 当地时间与世界标准时间之间的时差为+3 小时 30 分钟。 夏令时目前正在进行中。

公司介绍

我们没有关于这个机场的公司信息。

体会

到Vliegles.nl去找飞行课程,跳伞和其他飞行体验。 浏览页面,了解Shahid Moarebi Zadeh Hospital Heliport附近所有可用的活动。 你也可以使用搜索功能来寻找你所在地附近的特定飞行课程、跳伞或其他飞行体验。

温度 & 天气

温度 35 °C
露点 18 °C
相对湿度 36%
Kp-index 1 (0-9)

白天

日出
05:25
中午
12:19
日落
19:14 (10:59)

小工具

你想在你的网站上有一个关于Shahid Moarebi Zadeh Hospital Heliport的当前航空天气(METAR)的小部件吗?

显示HTML代码
报告变更